Time;durP1;ratioP1;P1;durP2;ratioP2;P2;SDS_P1;SDS_P2;PMS_P1;PMS_P2;Temp;Humidity;BMP_temperature;BMP_pressure;BME280_temperature;BME280_humidity;BME280_pressure;Samples;Min_cycle;Max_cycle;Signal;HPM_P1;HPM_P2
2021/08/23 00:01:51;;;;;;;22.65;13.93;;;18.20;87.30;;;;;;5094628;28;20034;-38
2021/08/23 00:04:17;;;;;;;21.92;14.20;;;18.20;87.10;;;;;;5094483;28;20028;-38
2021/08/23 00:06:43;;;;;;;23.00;15.68;;;18.10;87.60;;;;;;5094617;28;20468;-39
2021/08/23 00:09:08;;;;;;;23.17;14.90;;;18.10;87.70;;;;;;5093044;28;20023;-38
2021/08/23 00:11:34;;;;;;;22.38;15.77;;;18.10;87.70;;;;;;5094317;28;20160;-36
2021/08/23 00:14:00;;;;;;;20.77;14.20;;;18.10;87.50;;;;;;5094595;28;20056;-37
2021/08/23 00:16:25;;;;;;;19.13;15.73;;;18.10;87.40;;;;;;5094187;28;20020;-37
2021/08/23 00:18:51;;;;;;;20.38;14.07;;;17.90;87.70;;;;;;5094105;28;20131;-37
2021/08/23 00:21:24;;;;;;;23.05;15.38;;;17.80;88.00;;;;;;5094129;28;20020;-37
2021/08/23 00:23:54;;;;;;;19.50;14.45;;;17.80;88.20;;;;;;5094174;28;20391;-37
2021/08/23 00:26:21;;;;;;;21.40;14.57;;;17.90;88.00;;;;;;5094047;28;20024;-37
2021/08/23 00:28:47;;;;;;;20.35;14.25;;;17.80;88.30;;;;;;5094394;28;20059;-37
2021/08/23 00:31:13;;;;;;;17.08;12.40;;;17.80;88.70;;;;;;5094032;28;20047;-37
2021/08/23 00:33:39;;;;;;;21.55;14.05;;;17.70;88.80;;;;;;5093655;28;20028;-37
2021/08/23 00:36:05;;;;;;;20.60;12.57;;;17.60;89.30;;;;;;5094146;28;20097;-37
2021/08/23 00:38:30;;;;;;;19.25;13.00;;;17.50;89.70;;;;;;5092442;28;20024;-37
2021/08/23 00:40:56;;;;;;;15.77;12.80;;;17.30;90.10;;;;;;5093924;28;20024;-37
2021/08/23 00:43:22;;;;;;;20.13;12.65;;;17.30;90.10;;;;;;5093361;28;20035;-37
2021/08/23 00:45:47;;;;;;;20.55;14.70;;;17.20;90.50;;;;;;5093732;28;20056;-37
2021/08/23 00:48:13;;;;;;;19.60;14.45;;;17.20;90.80;;;;;;5093506;28;20051;-37
2021/08/23 00:50:39;;;;;;;24.23;14.45;;;17.10;91.00;;;;;;5093899;28;20024;-37
2021/08/23 00:53:04;;;;;;;18.98;14.27;;;17.10;91.00;;;;;;5093606;28;20027;-37
2021/08/23 00:55:32;;;;;;;18.95;14.05;;;17.00;91.10;;;;;;5093591;28;20349;-37
2021/08/23 00:57:59;;;;;;;22.60;15.32;;;17.00;91.10;;;;;;5091819;28;20023;-37
2021/08/23 01:00:25;;;;;;;18.92;14.88;;;17.00;91.20;;;;;;5092518;28;20020;-37
2021/08/23 01:03:37;;;;;;;21.05;14.00;;;17.00;91.30;;;;;;5093200;28;20028;-37
2021/08/23 01:06:08;;;;;;;20.20;14.57;;;17.10;91.30;;;;;;5030675;28;20032;-37
2021/08/23 01:08:40;;;;;;;20.67;14.68;;;17.10;91.20;;;;;;5086115;28;20036;-38
2021/08/23 01:11:09;;;;;;;20.15;13.95;;;17.10;91.10;;;;;;5093274;28;20020;-37
2021/08/23 01:13:36;;;;;;;19.00;13.73;;;17.10;91.00;;;;;;5092399;28;20044;-36
2021/08/23 01:16:02;;;;;;;17.02;12.90;;;17.20;91.10;;;;;;5092935;28;20314;-36
2021/08/23 01:18:30;;;;;;;18.50;13.20;;;17.10;91.10;;;;;;5092826;28;20020;-38
2021/08/23 01:20:59;;;;;;;23.73;13.40;;;17.10;91.10;;;;;;5092720;28;20028;-37
2021/08/23 01:23:26;;;;;;;17.02;12.43;;;17.10;91.00;;;;;;5092683;28;20482;-36
2021/08/23 01:25:52;;;;;;;18.92;12.38;;;17.20;91.10;;;;;;5091546;28;20074;-36
2021/08/23 01:28:22;;;;;;;16.10;12.18;;;17.20;90.90;;;;;;5091546;28;20476;-37
2021/08/23 01:31:05;;;;;;;17.20;13.02;;;17.10;90.80;;;;;;5092951;28;20078;-37
2021/08/23 01:33:31;;;;;;;17.25;13.82;;;17.00;90.80;;;;;;5092708;28;20034;-36
2021/08/23 01:35:59;;;;;;;19.42;12.90;;;17.00;91.00;;;;;;5092930;28;20031;-38
2021/08/23 01:38:25;;;;;;;24.52;14.82;;;16.90;90.90;;;;;;5092772;28;20020;-37
2021/08/23 01:41:01;;;;;;;19.52;13.85;;;16.80;91.10;;;;;;5093227;28;20423;-37
2021/08/23 01:43:27;;;;;;;19.55;14.57;;;16.90;91.30;;;;;;5092735;28;20154;-37
2021/08/23 01:45:53;;;;;;;21.52;15.18;;;16.90;91.40;;;;;;5093037;28;20142;-37
2021/08/23 01:48:19;;;;;;;21.60;16.10;;;16.80;91.40;;;;;;5092711;28;20038;-37
2021/08/23 01:50:44;;;;;;;25.30;18.17;;;16.80;91.50;;;;;;5092713;28;20028;-37
2021/08/23 01:53:10;;;;;;;22.92;17.75;;;16.80;91.40;;;;;;5093057;28;20108;-37
2021/08/23 01:55:35;;;;;;;26.10;19.17;;;16.90;91.40;;;;;;5092636;28;20093;-37
2021/08/23 01:58:02;;;;;;;33.97;19.38;;;16.90;91.50;;;;;;5091281;28;20032;-37
2021/08/23 02:00:28;;;;;;;28.33;20.27;;;16.80;91.30;;;;;;5092644;28;20076;-37
2021/08/23 02:02:53;;;;;;;33.92;19.88;;;16.80;91.30;;;;;;5093219;28;20410;-36
2021/08/23 02:05:19;;;;;;;30.02;20.10;;;16.80;91.40;;;;;;5092882;28;20379;-40
2021/08/23 02:07:44;;;;;;;31.30;21.60;;;16.80;91.40;;;;;;5092597;28;20063;-37
2021/08/23 02:10:10;;;;;;;26.60;19.85;;;16.90;91.40;;;;;;5092623;28;20021;-37
2021/08/23 02:12:36;;;;;;;25.13;18.83;;;16.90;91.30;;;;;;5094544;28;20059;-36
2021/08/23 02:15:02;;;;;;;21.20;15.18;;;17.00;91.30;;;;;;5096272;28;20104;-36
2021/08/23 02:17:27;;;;;;;24.95;17.77;;;17.00;90.60;;;;;;5096396;28;20065;-37
2021/08/23 02:19:53;;;;;;;23.48;16.25;;;17.00;90.70;;;;;;5096478;28;20464;-37
2021/08/23 02:22:18;;;;;;;27.48;18.67;;;17.00;90.80;;;;;;5096220;28;20016;-37
2021/08/23 02:24:44;;;;;;;26.45;19.27;;;17.00;90.60;;;;;;5096351;28;20055;-37
2021/08/23 02:27:11;;;;;;;30.63;20.17;;;17.00;90.80;;;;;;5096470;28;20035;-37
2021/08/23 02:29:36;;;;;;;23.90;15.90;;;17.10;90.60;;;;;;5096379;28;20030;-37
2021/08/23 02:32:02;;;;;;;28.45;20.63;;;17.10;90.20;;;;;;5096138;28;20059;-37
2021/08/23 02:34:28;;;;;;;25.23;20.10;;;17.00;90.50;;;;;;5095967;28;20430;-37
2021/08/23 02:36:53;;;;;;;32.92;24.05;;;16.90;90.90;;;;;;5096151;28;20450;-37
2021/08/23 02:39:19;;;;;;;31.20;22.58;;;16.80;91.20;;;;;;5096167;28;20104;-37
2021/08/23 02:41:45;;;;;;;33.40;24.20;;;16.80;91.40;;;;;;5095802;28;20016;-37
2021/08/23 02:44:10;;;;;;;30.63;22.88;;;16.80;91.60;;;;;;5096124;28;20038;-37
2021/08/23 02:46:36;;;;;;;31.02;23.80;;;16.80;91.70;;;;;;5095789;28;20020;-36
2021/08/23 02:49:01;;;;;;;31.05;22.05;;;16.70;91.80;;;;;;5094464;28;20398;-36
2021/08/23 02:51:27;;;;;;;33.00;23.27;;;16.70;92.00;;;;;;5095826;28;20100;-37
2021/08/23 02:53:53;;;;;;;29.30;22.23;;;16.80;91.90;;;;;;5095729;28;20028;-37
2021/08/23 02:56:19;;;;;;;31.33;23.38;;;16.80;91.90;;;;;;5095571;28;20027;-37
2021/08/23 02:58:44;;;;;;;37.88;23.83;;;16.80;91.70;;;;;;5095627;28;20027;-37
2021/08/23 03:01:10;;;;;;;36.03;23.50;;;16.80;91.70;;;;;;5095666;28;20016;-36
2021/08/23 03:03:36;;;;;;;30.50;22.42;;;16.80;91.50;;;;;;5094092;28;20047;-38
2021/08/23 03:06:01;;;;;;;33.65;23.08;;;16.80;91.60;;;;;;5095381;28;20107;-37
2021/08/23 03:08:27;;;;;;;30.92;21.25;;;16.90;91.50;;;;;;5095667;28;20020;-38
2021/08/23 03:10:54;;;;;;;31.42;21.30;;;16.90;91.50;;;;;;5095574;28;20441;-37
2021/08/23 03:13:23;;;;;;;30.85;22.23;;;17.00;91.60;;;;;;5095146;28;20048;-38
2021/08/23 03:15:49;;;;;;;38.58;23.95;;;17.00;91.10;;;;;;5094174;28;20020;-38
2021/08/23 03:18:15;;;;;;;34.95;24.00;;;17.00;91.20;;;;;;5095419;28;20028;-38
2021/08/23 03:20:41;;;;;;;33.60;23.05;;;17.00;91.30;;;;;;5095134;28;20035;-38
2021/08/23 03:23:06;;;;;;;32.00;22.33;;;17.00;91.20;;;;;;5094749;28;20491;-38
2021/08/23 03:25:32;;;;;;;32.75;23.13;;;17.10;91.00;;;;;;5095019;28;20024;-37
2021/08/23 03:27:58;;;;;;;34.45;23.05;;;17.30;90.30;;;;;;5095258;28;20024;-37
2021/08/23 03:30:23;;;;;;;35.17;24.33;;;17.20;90.40;;;;;;5095227;28;20028;-37
2021/08/23 03:32:49;;;;;;;35.72;25.48;;;17.30;90.40;;;;;;5094899;28;20035;-37
2021/08/23 03:35:14;;;;;;;35.47;24.73;;;17.30;90.30;;;;;;5094759;28;20121;-37
2021/08/23 03:37:40;;;;;;;34.67;23.30;;;17.20;90.80;;;;;;5094789;28;20130;-37
2021/08/23 03:40:06;;;;;;;34.40;24.20;;;17.20;90.80;;;;;;5094698;28;20020;-38
2021/08/23 03:42:32;;;;;;;30.65;22.08;;;17.10;90.90;;;;;;5094706;28;20066;-38
2021/08/23 03:44:58;;;;;;;35.58;22.90;;;17.20;90.60;;;;;;5094490;28;20028;-37
2021/08/23 03:47:26;;;;;;;37.80;23.67;;;17.20;90.60;;;;;;5093124;28;20541;-38
2021/08/23 03:49:52;;;;;;;35.00;24.45;;;17.30;90.60;;;;;;5093020;28;20047;-38
2021/08/23 03:52:18;;;;;;;43.30;25.38;;;17.20;90.70;;;;;;5094575;28;20464;-37
2021/08/23 03:54:43;;;;;;;39.05;25.00;;;17.30;90.30;;;;;;5094181;28;20119;-38
2021/08/23 03:57:09;;;;;;;35.17;24.83;;;17.30;90.30;;;;;;5094155;28;20034;-37
2021/08/23 03:59:34;;;;;;;35.72;24.98;;;17.40;90.10;;;;;;5094382;28;20055;-37
2021/08/23 04:02:00;;;;;;;35.22;24.95;;;17.30;90.00;;;;;;5094077;28;20372;-37
2021/08/23 04:04:26;;;;;;;30.38;22.85;;;17.30;90.30;;;;;;5094543;28;20028;-37
2021/08/23 04:06:51;;;;;;;32.70;25.23;;;17.20;90.30;;;;;;5094380;28;20028;-37
2021/08/23 04:09:17;;;;;;;31.73;22.77;;;17.20;90.60;;;;;;5094277;28;20027;-37
2021/08/23 04:11:43;;;;;;;35.83;25.33;;;17.10;90.80;;;;;;5094081;28;20036;-37
2021/08/23 04:14:09;;;;;;;33.35;23.67;;;17.10;91.00;;;;;;5094246;28;20028;-37
2021/08/23 04:16:34;;;;;;;38.00;24.08;;;17.10;90.80;;;;;;5094219;28;20020;-37
2021/08/23 04:19:00;;;;;;;39.30;26.50;;;17.10;90.70;;;;;;5093863;28;20024;-36
2021/08/23 04:21:25;;;;;;;37.55;26.38;;;17.10;90.90;;;;;;5093907;28;20507;-37
2021/08/23 04:23:51;;;;;;;43.90;27.58;;;17.10;91.00;;;;;;5093796;28;20020;-41
2021/08/23 04:26:17;;;;;;;40.13;27.10;;;17.10;90.90;;;;;;5093872;28;20483;-37
2021/08/23 04:28:42;;;;;;;38.20;26.63;;;17.10;90.90;;;;;;5093711;28;20032;-37
2021/08/23 04:31:08;;;;;;;43.95;28.95;;;17.10;91.00;;;;;;5093498;28;20337;-37
2021/08/23 04:33:33;;;;;;;39.78;27.85;;;17.10;90.90;;;;;;5093556;28;20081;-37
2021/08/23 04:35:59;;;;;;;39.10;27.55;;;17.10;91.10;;;;;;5092932;28;20051;-37
2021/08/23 04:38:25;;;;;;;40.78;27.35;;;17.00;91.00;;;;;;5093670;28;20478;-37
2021/08/23 04:40:51;;;;;;;42.38;26.58;;;17.10;91.00;;;;;;5093844;28;20024;-36
2021/08/23 04:43:16;;;;;;;39.88;28.13;;;17.10;90.80;;;;;;5092226;28;20023;-37
2021/08/23 04:45:42;;;;;;;42.10;28.48;;;17.00;91.00;;;;;;5093729;28;20048;-37
2021/08/23 04:48:08;;;;;;;39.63;28.48;;;16.90;91.10;;;;;;5093729;28;20028;-37
2021/08/23 04:50:33;;;;;;;40.03;27.30;;;17.00;91.20;;;;;;5093469;28;20048;-38
2021/08/23 04:53:00;;;;;;;45.33;28.30;;;17.00;91.20;;;;;;5093428;28;20108;-37
2021/08/23 04:55:25;;;;;;;42.40;27.98;;;17.10;90.80;;;;;;5093099;28;20111;-37
2021/08/23 04:57:55;;;;;;;45.47;29.40;;;17.10;90.90;;;;;;5093322;28;20069;-40
2021/08/23 05:00:20;;;;;;;45.60;27.40;;;17.10;91.00;;;;;;5093286;28;20024;-37
2021/08/23 05:02:46;;;;;;;46.75;27.73;;;17.00;91.00;;;;;;5093214;28;20031;-37
2021/08/23 05:05:12;;;;;;;40.50;26.95;;;17.10;90.90;;;;;;5093500;28;20093;-37
2021/08/23 05:07:37;;;;;;;40.53;27.90;;;17.00;90.80;;;;;;5093203;28;20028;-37
2021/08/23 05:10:04;;;;;;;45.05;28.13;;;17.10;90.80;;;;;;5093115;28;20020;-38
2021/08/23 05:12:29;;;;;;;42.42;26.85;;;17.30;90.50;;;;;;5091931;28;20101;-37
2021/08/23 05:14:55;;;;;;;42.67;26.85;;;17.20;90.30;;;;;;5091333;28;20024;-39
2021/08/23 05:17:21;;;;;;;43.22;27.90;;;17.20;90.50;;;;;;5093045;28;20020;-37
2021/08/23 05:19:46;;;;;;;40.15;26.23;;;17.30;90.30;;;;;;5092941;28;20027;-37
2021/08/23 05:22:12;;;;;;;39.05;26.48;;;17.30;90.00;;;;;;5093222;28;20027;-37
2021/08/23 05:24:38;;;;;;;41.63;26.83;;;17.30;89.80;;;;;;5092888;28;20024;-37
2021/08/23 05:27:03;;;;;;;46.17;27.70;;;17.30;90.30;;;;;;5092961;28;20032;-38
2021/08/23 05:29:29;;;;;;;41.33;27.05;;;17.30;90.40;;;;;;5092778;28;20032;-37
2021/08/23 05:31:54;;;;;;;42.58;25.83;;;17.20;90.50;;;;;;5092775;28;20035;-37
2021/08/23 05:34:20;;;;;;;40.58;25.33;;;17.20;90.20;;;;;;5092740;28;20372;-37
2021/08/23 05:36:46;;;;;;;40.50;25.00;;;17.10;90.50;;;;;;5092637;28;20141;-38
2021/08/23 05:39:11;;;;;;;41.95;27.80;;;17.10;90.40;;;;;;5092690;28;20502;-38
2021/08/23 05:41:37;;;;;;;40.30;25.52;;;17.10;90.70;;;;;;5091891;28;20030;-37
2021/08/23 05:44:03;;;;;;;37.90;25.42;;;17.20;90.50;;;;;;5091522;28;20429;-37
2021/08/23 05:46:28;;;;;;;37.15;24.48;;;17.30;90.20;;;;;;5095467;28;20028;-37
2021/08/23 05:48:54;;;;;;;35.75;25.25;;;17.30;89.90;;;;;;5096696;28;20020;-37
2021/08/23 05:51:19;;;;;;;36.00;24.10;;;17.30;90.00;;;;;;5096883;28;20173;-37
2021/08/23 05:53:45;;;;;;;33.15;23.20;;;17.30;89.70;;;;;;5096249;28;20027;-37
2021/08/23 05:56:11;;;;;;;34.20;25.05;;;17.40;89.80;;;;;;5096563;28;20024;-38
2021/08/23 05:58:37;;;;;;;37.10;25.58;;;17.30;89.70;;;;;;5096414;28;20098;-37
2021/08/23 06:01:07;;;;;;;32.80;23.98;;;17.30;89.90;;;;;;5096452;28;20113;-37
2021/08/23 06:03:33;;;;;;;32.53;23.80;;;17.30;90.00;;;;;;5095174;28;20121;-37
2021/08/23 06:06:06;;;;;;;32.72;22.02;;;17.30;90.00;;;;;;5096523;28;20111;-44
2021/08/23 06:08:34;;;;;;;31.48;23.23;;;17.40;89.90;;;;;;5096725;28;20545;-37
2021/08/23 06:11:01;;;;;;;32.25;23.92;;;17.40;89.70;;;;;;5096268;28;20085;-37
2021/08/23 06:13:26;;;;;;;32.50;23.40;;;17.50;89.60;;;;;;5096144;28;20040;-37
2021/08/23 06:15:56;;;;;;;32.22;21.42;;;17.50;89.60;;;;;;5094938;28;20046;-37
2021/08/23 06:18:22;;;;;;;33.50;22.30;;;17.40;89.60;;;;;;5096201;28;20062;-38
2021/08/23 06:20:48;;;;;;;28.77;20.17;;;17.30;90.10;;;;;;5096009;28;20408;-38
2021/08/23 06:23:13;;;;;;;27.33;18.60;;;17.30;90.30;;;;;;5096367;28;20016;-37
2021/08/23 06:25:39;;;;;;;30.75;20.25;;;17.20;90.20;;;;;;5095223;28;20467;-37
2021/08/23 06:28:06;;;;;;;21.13;16.67;;;17.10;90.50;;;;;;5095874;28;20024;-36
2021/08/23 06:30:31;;;;;;;25.65;16.10;;;17.10;90.00;;;;;;5096294;28;20027;-37
2021/08/23 06:32:57;;;;;;;21.05;14.40;;;17.10;89.50;;;;;;5094408;28;20024;-37
2021/08/23 06:35:23;;;;;;;20.35;15.95;;;17.20;89.40;;;;;;5095797;28;20024;-38
2021/08/23 06:37:49;;;;;;;22.25;15.38;;;17.20;89.40;;;;;;5095468;28;20020;-38
2021/08/23 06:40:15;;;;;;;21.15;13.82;;;17.40;88.80;;;;;;5096315;28;20524;-37
2021/08/23 06:42:40;;;;;;;20.08;14.05;;;17.50;87.60;;;;;;5096117;28;20329;-37
2021/08/23 06:45:07;;;;;;;20.63;13.85;;;17.50;87.40;;;;;;5095414;28;20031;-37
2021/08/23 06:47:34;;;;;;;17.25;12.93;;;17.50;87.70;;;;;;5095296;28;20016;-37
2021/08/23 06:49:59;;;;;;;19.52;13.68;;;17.50;87.40;;;;;;5095738;28;20035;-37
2021/08/23 06:52:25;;;;;;;16.80;13.45;;;17.50;87.10;;;;;;5095578;28;20032;-37
2021/08/23 06:54:50;;;;;;;18.67;14.98;;;17.50;87.30;;;;;;5095179;28;20095;-37
2021/08/23 06:57:16;;;;;;;20.70;14.02;;;17.70;87.10;;;;;;5094276;28;20020;-37
2021/08/23 06:59:43;;;;;;;20.55;12.98;;;17.70;87.10;;;;;;5095061;28;20099;-37
2021/08/23 07:02:10;;;;;;;16.88;12.10;;;17.80;86.60;;;;;;5094964;28;20525;-37
2021/08/23 07:04:36;;;;;;;19.55;12.85;;;17.60;86.70;;;;;;5094774;28;20088;-37
2021/08/23 07:07:02;;;;;;;18.40;13.20;;;17.60;86.80;;;;;;5095068;28;20103;-37
2021/08/23 07:09:28;;;;;;;16.80;13.05;;;17.70;86.60;;;;;;5094708;28;20421;-37
2021/08/23 07:11:54;;;;;;;22.42;13.88;;;17.60;86.50;;;;;;5093197;28;20032;-37
2021/08/23 07:14:20;;;;;;;27.10;14.27;;;17.60;86.80;;;;;;5094596;28;20032;-37
2021/08/23 07:16:45;;;;;;;16.70;12.20;;;17.60;87.00;;;;;;5093950;28;20020;-36
2021/08/23 07:19:11;;;;;;;18.60;13.05;;;17.60;86.30;;;;;;5095093;28;20455;-38
2021/08/23 07:21:36;;;;;;;19.48;14.20;;;17.60;86.60;;;;;;5092090;28;20130;-36
2021/08/23 07:24:02;;;;;;;17.55;13.30;;;17.80;86.30;;;;;;5093294;28;20020;-37
2021/08/23 07:26:28;;;;;;;16.52;12.35;;;17.80;85.90;;;;;;5094488;28;20020;-36
2021/08/23 07:28:53;;;;;;;19.15;11.25;;;17.90;85.70;;;;;;5093855;28;20031;-37
2021/08/23 07:31:21;;;;;;;16.67;11.85;;;18.10;84.60;;;;;;5093949;28;20042;-37
2021/08/23 07:33:46;;;;;;;15.43;12.57;;;18.10;84.30;;;;;;5093604;28;20028;-36
2021/08/23 07:36:12;;;;;;;12.65;10.80;;;18.00;84.30;;;;;;5094616;28;20027;-38
2021/08/23 07:38:38;;;;;;;16.80;12.57;;;18.30;84.00;;;;;;5092890;28;20108;-39
2021/08/23 07:41:03;;;;;;;15.50;11.77;;;18.50;83.20;;;;;;5094018;28;20545;-36
2021/08/23 07:43:30;;;;;;;17.75;13.43;;;18.70;82.50;;;;;;5093908;28;20543;-37
2021/08/23 07:45:56;;;;;;;17.63;11.02;;;18.40;82.50;;;;;;5093911;28;20024;-37
2021/08/23 07:48:21;;;;;;;16.48;11.35;;;18.30;83.20;;;;;;5094672;28;20418;-39
2021/08/23 07:50:47;;;;;;;18.30;12.80;;;18.30;83.30;;;;;;5094574;28;20396;-37
2021/08/23 07:53:13;;;;;;;18.23;13.77;;;18.20;83.40;;;;;;5094811;28;20027;-38
2021/08/23 07:55:38;;;;;;;16.33;12.68;;;18.10;83.90;;;;;;5093030;28;20020;-38
2021/08/23 07:58:04;;;;;;;19.70;12.75;;;18.20;83.60;;;;;;5092566;28;20048;-39
2021/08/23 08:00:30;;;;;;;16.48;13.55;;;18.40;82.80;;;;;;5092733;28;20039;-38
2021/08/23 08:02:55;;;;;;;14.50;11.60;;;18.40;82.60;;;;;;5093966;28;20066;-37
2021/08/23 08:05:21;;;;;;;15.63;11.88;;;18.30;82.10;;;;;;5094120;28;20028;-38
2021/08/23 08:07:47;;;;;;;20.58;12.98;;;18.40;82.00;;;;;;5094301;28;20467;-37
2021/08/23 08:10:14;;;;;;;16.38;11.55;;;18.50;81.90;;;;;;5094219;28;20031;-36
2021/08/23 08:12:40;;;;;;;16.98;13.07;;;18.80;81.20;;;;;;5093583;28;20052;-36
2021/08/23 08:15:06;;;;;;;19.67;13.10;;;18.60;81.30;;;;;;5093212;28;20476;-36
2021/08/23 08:17:32;;;;;;;17.77;11.98;;;18.70;81.00;;;;;;5093786;28;20055;-36
2021/08/23 08:19:58;;;;;;;12.25;10.95;;;18.60;80.70;;;;;;5093186;28;20025;-36
2021/08/23 08:22:24;;;;;;;17.02;12.13;;;18.50;80.70;;;;;;5091933;28;20078;-37
2021/08/23 08:24:49;;;;;;;16.25;12.35;;;18.30;81.60;;;;;;5093682;28;20397;-37
2021/08/23 08:27:15;;;;;;;16.13;12.27;;;18.20;81.80;;;;;;5093693;28;20085;-37
2021/08/23 08:29:41;;;;;;;18.15;13.70;;;18.30;82.10;;;;;;5092208;28;20040;-36
2021/08/23 08:32:07;;;;;;;17.25;14.10;;;18.30;82.00;;;;;;5093135;28;20491;-37
2021/08/23 08:34:33;;;;;;;20.25;13.85;;;18.70;80.90;;;;;;5093124;28;20107;-38
2021/08/23 08:37:00;;;;;;;16.60;12.75;;;19.10;80.00;;;;;;5092954;28;20024;-37
2021/08/23 08:39:27;;;;;;;13.68;11.75;;;19.40;77.90;;;;;;5092642;28;20024;-38
2021/08/23 08:41:53;;;;;;;15.23;12.50;;;19.90;76.30;;;;;;5074522;28;20475;-37
2021/08/23 08:44:18;;;;;;;17.45;13.32;;;20.30;74.30;;;;;;5092531;28;20043;-42
2021/08/23 08:46:45;;;;;;;15.30;12.13;;;20.40;72.80;;;;;;5092458;28;20055;-38
2021/08/23 08:49:12;;;;;;;19.23;13.20;;;20.60;72.10;;;;;;5092448;28;20024;-38
2021/08/23 08:51:39;;;;;;;14.68;11.65;;;20.80;71.10;;;;;;5092809;28;20024;-38
2021/08/23 08:54:05;;;;;;;16.80;12.05;;;20.80;71.00;;;;;;5092483;28;20039;-38
2021/08/23 08:56:32;;;;;;;15.77;13.00;;;20.40;72.00;;;;;;5092714;28;20024;-36
2021/08/23 08:59:00;;;;;;;17.15;13.05;;;20.20;73.80;;;;;;5093020;28;20028;-37
2021/08/23 09:01:26;;;;;;;16.23;14.02;;;20.10;73.20;;;;;;5092536;28;20024;-37
2021/08/23 09:03:52;;;;;;;19.05;13.45;;;19.80;73.50;;;;;;5093276;28;20111;-37
2021/08/23 09:06:17;;;;;;;13.75;11.23;;;19.60;74.30;;;;;;5091054;28;20381;-38
2021/08/23 09:08:48;;;;;;;17.38;12.55;;;19.60;73.40;;;;;;5091052;28;20024;-38
2021/08/23 09:11:16;;;;;;;15.60;12.02;;;19.70;73.00;;;;;;5092953;28;20031;-38
2021/08/23 09:13:58;;;;;;;16.67;12.05;;;19.70;72.10;;;;;;5092170;28;20495;-37
2021/08/23 09:16:28;;;;;;;13.40;11.18;;;19.70;71.60;;;;;;5092724;28;20040;-37
2021/08/23 09:18:54;;;;;;;16.48;11.75;;;19.80;71.40;;;;;;5092282;28;20027;-37
2021/08/23 09:21:28;;;;;;;17.20;12.27;;;19.80;71.60;;;;;;5092020;28;20032;-38
2021/08/23 09:23:57;;;;;;;16.65;11.18;;;20.00;71.20;;;;;;5091121;28;20028;-36
2021/08/23 09:26:31;;;;;;;14.82;10.95;;;20.00;71.10;;;;;;5091081;28;20032;-38
2021/08/23 09:29:06;;;;;;;14.35;11.48;;;19.60;72.10;;;;;;5091055;28;20051;-36
2021/08/23 09:31:35;;;;;;;13.02;11.05;;;19.80;71.90;;;;;;5092307;28;20159;-36
2021/08/23 09:34:06;;;;;;;12.55;11.07;;;20.10;70.80;;;;;;5092222;28;20337;-38
2021/08/23 09:36:32;;;;;;;29.98;17.67;;;19.90;72.00;;;;;;5092531;28;20460;-38
2021/08/23 09:39:06;;;;;;;14.93;11.50;;;20.30;71.40;;;;;;5092492;28;20016;-39
2021/08/23 09:41:40;;;;;;;16.73;11.60;;;20.00;71.30;;;;;;5091510;28;20028;-38
2021/08/23 09:44:07;;;;;;;15.77;11.73;;;20.20;71.00;;;;;;5091396;28;20024;-37
2021/08/23 09:46:33;;;;;;;13.52;11.43;;;20.10;71.40;;;;;;5092352;28;20049;-37
2021/08/23 09:49:05;;;;;;;12.15;10.10;;;20.30;70.90;;;;;;5092269;28;20016;-39
2021/08/23 09:51:36;;;;;;;16.05;12.05;;;20.50;70.50;;;;;;5090712;28;20032;-38
2021/08/23 09:54:10;;;;;;;13.13;10.38;;;20.40;70.20;;;;;;5092427;28;20050;-38
2021/08/23 09:56:43;;;;;;;15.25;10.43;;;20.60;70.80;;;;;;5091815;28;20020;-37
2021/08/23 09:59:13;;;;;;;16.70;11.02;;;20.70;70.30;;;;;;5074731;28;20020;-37
2021/08/23 10:01:39;;;;;;;18.92;10.68;;;20.90;69.90;;;;;;5092278;28;20111;-37
2021/08/23 10:04:07;;;;;;;16.92;11.65;;;20.70;69.70;;;;;;5091921;28;20035;-37
2021/08/23 10:06:36;;;;;;;15.00;11.40;;;20.30;71.50;;;;;;5091865;28;20028;-37
2021/08/23 10:09:03;;;;;;;16.08;11.55;;;20.40;71.80;;;;;;5089867;28;20062;-37
2021/08/23 10:11:33;;;;;;;14.05;10.77;;;20.50;71.30;;;;;;5091805;28;20026;-37
2021/08/23 10:13:59;;;;;;;12.80;11.40;;;20.80;70.90;;;;;;5090814;28;20040;-37
2021/08/23 10:16:25;;;;;;;12.18;9.70;;;20.60;70.80;;;;;;5091346;28;20605;-37
2021/08/23 10:18:52;;;;;;;15.50;11.02;;;20.60;71.30;;;;;;5090647;28;20141;-37
2021/08/23 10:21:19;;;;;;;14.68;10.50;;;20.80;71.00;;;;;;5091768;28;20020;-37
2021/08/23 10:23:47;;;;;;;14.57;10.82;;;20.80;71.10;;;;;;5091501;28;20112;-37
2021/08/23 10:26:13;;;;;;;13.38;10.38;;;20.30;72.40;;;;;;5091842;28;20044;-36
2021/08/23 10:28:39;;;;;;;13.05;9.98;;;20.00;73.40;;;;;;5091532;28;20032;-37
2021/08/23 10:31:09;;;;;;;17.65;10.23;;;19.70;74.40;;;;;;5092043;28;20087;-37
2021/08/23 10:33:42;;;;;;;13.93;10.63;;;19.70;75.00;;;;;;5093951;28;20097;-45
2021/08/23 10:36:11;;;;;;;16.60;11.63;;;19.60;75.10;;;;;;5095782;28;20073;-39
2021/08/23 10:38:38;;;;;;;16.37;12.07;;;19.50;75.50;;;;;;5094994;28;20077;-37
2021/08/23 10:41:23;;;;;;;17.08;11.20;;;19.50;75.50;;;;;;5094924;28;20040;-37
2021/08/23 10:43:52;;;;;;;20.83;11.40;;;19.70;75.10;;;;;;5094614;28;20028;-37
2021/08/23 10:46:22;;;;;;;13.30;10.15;;;20.10;74.10;;;;;;5094879;28;20039;-37
2021/08/23 10:48:50;;;;;;;14.32;11.80;;;20.30;73.10;;;;;;5094671;28;20024;-37
2021/08/23 10:51:38;;;;;;;16.35;10.90;;;20.50;72.00;;;;;;5094099;28;20384;-36
2021/08/23 10:54:27;;;;;;;17.75;11.73;;;20.40;72.60;;;;;;5095157;28;20024;-37
2021/08/23 10:57:05;;;;;;;17.52;11.30;;;20.30;72.70;;;;;;5094833;28;20044;-37
2021/08/23 10:59:47;;;;;;;15.20;11.02;;;20.30;72.20;;;;;;5095119;28;20519;-37
2021/08/23 11:02:29;;;;;;;17.15;10.88;;;20.10;72.70;;;;;;5094748;28;20375;-37
2021/08/23 11:05:04;;;;;;;15.77;10.77;;;20.10;72.60;;;;;;5094631;28;20047;-40
2021/08/23 11:07:32;;;;;;;16.55;10.93;;;20.20;72.70;;;;;;5094989;28;20085;-37
2021/08/23 11:10:13;;;;;;;14.02;10.45;;;20.60;71.00;;;;;;5094849;28;20063;-38
2021/08/23 11:12:46;;;;;;;13.45;10.32;;;20.30;71.30;;;;;;5094278;28;20048;-38
2021/08/23 11:15:32;;;;;;;11.93;10.15;;;20.30;71.50;;;;;;5094560;28;20058;-38
2021/08/23 11:18:13;;;;;;;15.27;10.40;;;20.70;70.40;;;;;;5094532;28;20033;-38
2021/08/23 11:20:45;;;;;;;13.70;9.15;;;21.20;68.80;;;;;;5094460;28;20039;-36
2021/08/23 11:23:21;;;;;;;15.57;9.77;;;21.40;67.50;;;;;;5093997;28;20074;-40
2021/08/23 11:25:50;;;;;;;14.18;8.65;;;21.90;65.90;;;;;;5094638;28;20039;-39
2021/08/23 11:28:27;;;;;;;13.43;8.18;;;21.50;67.90;;;;;;5094663;28;20108;-38
2021/08/23 11:30:54;;;;;;;10.95;9.57;;;21.10;68.00;;;;;;5094518;28;20482;-36
2021/08/23 11:33:40;;;;;;;14.18;9.15;;;21.00;68.10;;;;;;5093067;28;20047;-38
2021/08/23 11:36:15;;;;;;;10.70;9.23;;;20.80;68.10;;;;;;5094039;28;20031;-35
2021/08/23 11:38:41;;;;;;;13.73;8.55;;;20.80;68.30;;;;;;5093056;28;20016;-36
2021/08/23 11:41:09;;;;;;;11.30;7.65;;;21.10;67.90;;;;;;5094358;28;20091;-39
2021/08/23 11:43:35;;;;;;;15.80;8.43;;;21.30;66.50;;;;;;5092920;28;20051;-38
2021/08/23 11:46:03;;;;;;;19.55;9.68;;;21.40;66.70;;;;;;5094107;28;20544;-38
2021/08/23 11:48:29;;;;;;;10.20;8.15;;;21.40;66.50;;;;;;5093783;28;20107;-38
2021/08/23 11:50:55;;;;;;;13.10;10.02;;;21.10;68.20;;;;;;5092713;28;20425;-38
2021/08/23 11:53:27;;;;;;;11.75;8.98;;;20.80;69.70;;;;;;5094120;28;20028;-37
2021/08/23 11:56:06;;;;;;;11.80;8.98;;;20.90;69.40;;;;;;5094260;28;20072;-37
2021/08/23 11:58:37;;;;;;;12.48;9.32;;;20.90;69.00;;;;;;5093906;28;20515;-37
2021/08/23 12:01:08;;;;;;;13.20;9.15;;;20.90;69.30;;;;;;5093492;28;20057;-36
2021/08/23 12:03:37;;;;;;;12.43;8.88;;;20.90;68.50;;;;;;5093791;28;20027;-38
2021/08/23 12:06:10;;;;;;;9.23;8.27;;;21.10;68.50;;;;;;5093764;28;20031;-36
2021/08/23 12:08:40;;;;;;;12.80;9.05;;;21.10;67.60;;;;;;5093555;28;20032;-36
2021/08/23 12:11:10;;;;;;;12.90;9.57;;;21.10;67.80;;;;;;5092233;28;20030;-36
2021/08/23 12:13:37;;;;;;;;;;;21.00;68.10;;;;;;5094385;28;20352;-38
2021/08/23 12:16:14;;;;;;;10.27;7.80;;;21.20;68.20;;;;;;5094784;28;19986;-38
2021/08/23 12:18:42;;;;;;;11.73;9.07;;;21.30;67.50;;;;;;5093563;28;20150;-38
2021/08/23 12:21:25;;;;;;;11.20;8.43;;;21.70;66.50;;;;;;5093436;28;20052;-38
2021/08/23 12:23:55;;;;;;;10.55;8.68;;;21.80;65.90;;;;;;5093897;28;20340;-38
2021/08/23 12:26:35;;;;;;;12.52;9.05;;;21.70;65.80;;;;;;5093426;28;20020;-38
2021/08/23 12:29:05;;;;;;;13.35;9.15;;;21.80;64.90;;;;;;5093140;28;20488;-36
2021/08/23 12:31:31;;;;;;;;;;;21.80;64.90;;;;;;5093585;28;20085;-37